sensor_id;sensor_type;location;lat;lon;timestamp;temperature;humidity
9389;DHT22;4734;52.778;6.798;2023-07-20T00:00:08;18.20;93.00
9389;DHT22;4734;52.778;6.798;2023-07-20T00:03:10;18.20;93.00
9389;DHT22;4734;52.778;6.798;2023-07-20T00:05:57;18.10;93.00
9389;DHT22;4734;52.778;6.798;2023-07-20T00:08:44;18.10;92.90
9389;DHT22;4734;52.778;6.798;2023-07-20T00:11:29;18.10;93.00
9389;DHT22;4734;52.778;6.798;2023-07-20T00:14:14;18.10;92.70
9389;DHT22;4734;52.778;6.798;2023-07-20T00:17:00;18.10;92.80
9389;DHT22;4734;52.778;6.798;2023-07-20T00:19:47;18.00;93.20
9389;DHT22;4734;52.778;6.798;2023-07-20T00:22:33;18.00;93.30
9389;DHT22;4734;52.778;6.798;2023-07-20T00:25:20;18.00;93.00
9389;DHT22;4734;52.778;6.798;2023-07-20T00:28:06;18.00;93.10
9389;DHT22;4734;52.778;6.798;2023-07-20T00:30:52;18.00;92.90
9389;DHT22;4734;52.778;6.798;2023-07-20T00:33:37;18.00;92.90
9389;DHT22;4734;52.778;6.798;2023-07-20T00:36:23;17.90;93.00
9389;DHT22;4734;52.778;6.798;2023-07-20T00:39:09;17.90;93.00
9389;DHT22;4734;52.778;6.798;2023-07-20T00:41:56;17.90;93.00
9389;DHT22;4734;52.778;6.798;2023-07-20T00:44:41;17.90;93.10
9389;DHT22;4734;52.778;6.798;2023-07-20T00:47:27;17.80;93.10
9389;DHT22;4734;52.778;6.798;2023-07-20T00:50:13;17.80;93.00
9389;DHT22;4734;52.778;6.798;2023-07-20T00:52:58;17.80;93.10
9389;DHT22;4734;52.778;6.798;2023-07-20T00:55:44;17.80;93.20
9389;DHT22;4734;52.778;6.798;2023-07-20T00:58:31;17.80;93.00
9389;DHT22;4734;52.778;6.798;2023-07-20T01:01:17;17.80;93.00
9389;DHT22;4734;52.778;6.798;2023-07-20T01:04:03;17.80;93.10
9389;DHT22;4734;52.778;6.798;2023-07-20T01:06:55;17.70;93.20
9389;DHT22;4734;52.778;6.798;2023-07-20T01:09:47;17.70;93.10
9389;DHT22;4734;52.778;6.798;2023-07-20T01:12:41;17.70;93.20
9389;DHT22;4734;52.778;6.798;2023-07-20T01:15:28;17.70;93.10
9389;DHT22;4734;52.778;6.798;2023-07-20T01:18:14;17.70;93.20
9389;DHT22;4734;52.778;6.798;2023-07-20T01:21:03;17.70;93.20
9389;DHT22;4734;52.778;6.798;2023-07-20T01:24:37;17.70;93.10
9389;DHT22;4734;52.778;6.798;2023-07-20T01:28:12;17.60;93.10
9389;DHT22;4734;52.778;6.798;2023-07-20T01:31:17;17.70;93.20
9389;DHT22;4734;52.778;6.798;2023-07-20T01:34:03;17.60;93.10
9389;DHT22;4734;52.778;6.798;2023-07-20T01:36:50;17.60;93.10
9389;DHT22;4734;52.778;6.798;2023-07-20T01:39:38;17.60;93.10
9389;DHT22;4734;52.778;6.798;2023-07-20T01:42:24;17.60;93.20
9389;DHT22;4734;52.778;6.798;2023-07-20T01:45:10;17.60;93.20
9389;DHT22;4734;52.778;6.798;2023-07-20T01:47:57;17.60;93.20
9389;DHT22;4734;52.778;6.798;2023-07-20T01:50:42;17.60;93.10
9389;DHT22;4734;52.778;6.798;2023-07-20T01:53:28;17.50;93.40
9389;DHT22;4734;52.778;6.798;2023-07-20T01:56:14;17.50;93.10
9389;DHT22;4734;52.778;6.798;2023-07-20T01:58:59;17.60;93.10
9389;DHT22;4734;52.778;6.798;2023-07-20T02:01:45;17.50;93.10
9389;DHT22;4734;52.778;6.798;2023-07-20T02:04:32;17.50;93.10
9389;DHT22;4734;52.778;6.798;2023-07-20T02:07:18;17.40;93.10
9389;DHT22;4734;52.778;6.798;2023-07-20T02:10:04;17.40;93.20
9389;DHT22;4734;52.778;6.798;2023-07-20T02:12:50;17.40;93.20
9389;DHT22;4734;52.778;6.798;2023-07-20T02:15:36;17.40;93.20
9389;DHT22;4734;52.778;6.798;2023-07-20T02:18:21;17.30;93.40
9389;DHT22;4734;52.778;6.798;2023-07-20T02:21:08;17.30;93.50
9389;DHT22;4734;52.778;6.798;2023-07-20T02:23:54;17.30;93.20
9389;DHT22;4734;52.778;6.798;2023-07-20T02:26:39;17.20;93.10
9389;DHT22;4734;52.778;6.798;2023-07-20T02:29:25;17.20;93.10
9389;DHT22;4734;52.778;6.798;2023-07-20T02:32:11;17.20;93.20
9389;DHT22;4734;52.778;6.798;2023-07-20T02:34:57;17.10;93.20
9389;DHT22;4734;52.778;6.798;2023-07-20T02:37:44;17.10;93.20
9389;DHT22;4734;52.778;6.798;2023-07-20T02:40:30;17.00;93.20
9389;DHT22;4734;52.778;6.798;2023-07-20T02:43:15;17.00;93.30
9389;DHT22;4734;52.778;6.798;2023-07-20T02:46:01;16.90;93.20
9389;DHT22;4734;52.778;6.798;2023-07-20T02:48:47;16.80;93.10
9389;DHT22;4734;52.778;6.798;2023-07-20T02:51:32;16.80;93.30
9389;DHT22;4734;52.778;6.798;2023-07-20T02:54:21;16.80;93.30
9389;DHT22;4734;52.778;6.798;2023-07-20T02:57:06;16.70;93.30
9389;DHT22;4734;52.778;6.798;2023-07-20T02:59:52;16.70;93.20
9389;DHT22;4734;52.778;6.798;2023-07-20T03:02:37;16.70;93.30
9389;DHT22;4734;52.778;6.798;2023-07-20T03:05:23;16.60;93.30
9389;DHT22;4734;52.778;6.798;2023-07-20T03:08:09;16.60;93.30
9389;DHT22;4734;52.778;6.798;2023-07-20T03:10:56;16.50;93.30
9389;DHT22;4734;52.778;6.798;2023-07-20T03:13:42;16.50;93.30
9389;DHT22;4734;52.778;6.798;2023-07-20T03:16:27;16.40;93.70
9389;DHT22;4734;52.778;6.798;2023-07-20T03:19:13;16.40;93.40
9389;DHT22;4734;52.778;6.798;2023-07-20T03:21:58;16.30;93.30
9389;DHT22;4734;52.778;6.798;2023-07-20T03:30:17;16.30;93.30
9389;DHT22;4734;52.778;6.798;2023-07-20T03:33:03;16.20;93.20
9389;DHT22;4734;52.778;6.798;2023-07-20T03:35:48;16.20;93.40
9389;DHT22;4734;52.778;6.798;2023-07-20T03:38:34;16.10;93.40
9389;DHT22;4734;52.778;6.798;2023-07-20T03:41:19;16.10;93.30
9389;DHT22;4734;52.778;6.798;2023-07-20T03:44:07;16.10;93.40
9389;DHT22;4734;52.778;6.798;2023-07-20T03:46:53;16.00;93.30
9389;DHT22;4734;52.778;6.798;2023-07-20T03:49:38;16.00;93.40
9389;DHT22;4734;52.778;6.798;2023-07-20T03:52:24;16.00;93.40
9389;DHT22;4734;52.778;6.798;2023-07-20T03:55:10;15.90;93.40
9389;DHT22;4734;52.778;6.798;2023-07-20T03:57:55;15.90;93.50
9389;DHT22;4734;52.778;6.798;2023-07-20T04:00:44;15.90;93.60
9389;DHT22;4734;52.778;6.798;2023-07-20T04:03:31;15.80;93.50
9389;DHT22;4734;52.778;6.798;2023-07-20T04:06:16;15.80;93.50
9389;DHT22;4734;52.778;6.798;2023-07-20T04:09:03;15.80;93.50
9389;DHT22;4734;52.778;6.798;2023-07-20T04:11:48;15.80;93.50
9389;DHT22;4734;52.778;6.798;2023-07-20T04:14:34;15.80;93.50
9389;DHT22;4734;52.778;6.798;2023-07-20T04:17:21;15.70;93.40
9389;DHT22;4734;52.778;6.798;2023-07-20T04:20:07;15.70;93.40
9389;DHT22;4734;52.778;6.798;2023-07-20T04:22:53;15.70;93.50
9389;DHT22;4734;52.778;6.798;2023-07-20T04:25:39;15.70;93.40
9389;DHT22;4734;52.778;6.798;2023-07-20T04:28:25;15.60;93.40
9389;DHT22;4734;52.778;6.798;2023-07-20T04:31:11;15.50;93.50
9389;DHT22;4734;52.778;6.798;2023-07-20T04:33:58;15.50;93.50
9389;DHT22;4734;52.778;6.798;2023-07-20T04:36:44;15.50;93.50
9389;DHT22;4734;52.778;6.798;2023-07-20T04:39:29;15.50;93.60
9389;DHT22;4734;52.778;6.798;2023-07-20T04:42:15;15.50;93.60
9389;DHT22;4734;52.778;6.798;2023-07-20T04:45:00;15.50;93.70
9389;DHT22;4734;52.778;6.798;2023-07-20T04:47:46;15.60;93.80
9389;DHT22;4734;52.778;6.798;2023-07-20T04:50:33;15.60;93.60
9389;DHT22;4734;52.778;6.798;2023-07-20T04:53:18;15.60;93.80
9389;DHT22;4734;52.778;6.798;2023-07-20T04:56:04;15.60;93.80
9389;DHT22;4734;52.778;6.798;2023-07-20T04:58:50;15.60;93.70
9389;DHT22;4734;52.778;6.798;2023-07-20T05:01:35;15.60;93.80
9389;DHT22;4734;52.778;6.798;2023-07-20T05:04:21;15.60;93.80
9389;DHT22;4734;52.778;6.798;2023-07-20T05:07:08;15.60;93.70
9389;DHT22;4734;52.778;6.798;2023-07-20T05:09:53;15.70;93.80
9389;DHT22;4734;52.778;6.798;2023-07-20T05:12:39;15.70;93.80
9389;DHT22;4734;52.778;6.798;2023-07-20T05:15:24;15.70;93.80
9389;DHT22;4734;52.778;6.798;2023-07-20T05:18:10;15.70;93.90
9389;DHT22;4734;52.778;6.798;2023-07-20T05:20:56;15.70;93.80
9389;DHT22;4734;52.778;6.798;2023-07-20T05:23:43;15.80;93.90
9389;DHT22;4734;52.778;6.798;2023-07-20T05:26:29;15.80;93.90
9389;DHT22;4734;52.778;6.798;2023-07-20T05:29:15;15.80;94.00
9389;DHT22;4734;52.778;6.798;2023-07-20T05:32:00;15.80;93.90
9389;DHT22;4734;52.778;6.798;2023-07-20T05:34:47;15.80;93.90
9389;DHT22;4734;52.778;6.798;2023-07-20T05:37:32;15.90;94.10
9389;DHT22;4734;52.778;6.798;2023-07-20T05:40:20;15.90;94.00
9389;DHT22;4734;52.778;6.798;2023-07-20T05:43:05;15.90;94.00
9389;DHT22;4734;52.778;6.798;2023-07-20T05:45:51;15.90;94.00
9389;DHT22;4734;52.778;6.798;2023-07-20T05:48:36;16.00;94.10
9389;DHT22;4734;52.778;6.798;2023-07-20T05:51:22;16.00;94.10
9389;DHT22;4734;52.778;6.798;2023-07-20T05:54:08;16.00;94.00
9389;DHT22;4734;52.778;6.798;2023-07-20T05:56:55;16.00;94.20
9389;DHT22;4734;52.778;6.798;2023-07-20T05:59:40;16.10;94.30
9389;DHT22;4734;52.778;6.798;2023-07-20T06:02:28;16.10;94.20
9389;DHT22;4734;52.778;6.798;2023-07-20T06:05:14;16.20;94.40
9389;DHT22;4734;52.778;6.798;2023-07-20T06:07:59;16.20;94.50
9389;DHT22;4734;52.778;6.798;2023-07-20T06:10:49;16.20;94.40
9389;DHT22;4734;52.778;6.798;2023-07-20T06:13:37;16.30;94.50
9389;DHT22;4734;52.778;6.798;2023-07-20T06:16:22;16.30;94.50
9389;DHT22;4734;52.778;6.798;2023-07-20T06:19:08;16.40;94.70
9389;DHT22;4734;52.778;6.798;2023-07-20T06:21:55;16.40;94.60
9389;DHT22;4734;52.778;6.798;2023-07-20T06:24:40;16.50;94.90
9389;DHT22;4734;52.778;6.798;2023-07-20T06:27:26;16.50;95.00
9389;DHT22;4734;52.778;6.798;2023-07-20T06:30:13;16.60;95.00
9389;DHT22;4734;52.778;6.798;2023-07-20T06:32:58;16.70;95.20
9389;DHT22;4734;52.778;6.798;2023-07-20T06:35:44;16.80;95.10
9389;DHT22;4734;52.778;6.798;2023-07-20T06:38:30;16.80;95.10
9389;DHT22;4734;52.778;6.798;2023-07-20T06:41:15;16.90;95.20
9389;DHT22;4734;52.778;6.798;2023-07-20T06:44:01;17.00;95.30
9389;DHT22;4734;52.778;6.798;2023-07-20T06:46:48;17.10;95.80
9389;DHT22;4734;52.778;6.798;2023-07-20T06:49:34;17.20;95.50
9389;DHT22;4734;52.778;6.798;2023-07-20T06:52:19;17.30;95.70
9389;DHT22;4734;52.778;6.798;2023-07-20T06:55:06;17.40;95.70
9389;DHT22;4734;52.778;6.798;2023-07-20T06:57:52;17.50;95.60
9389;DHT22;4734;52.778;6.798;2023-07-20T07:00:38;17.50;95.70
9389;DHT22;4734;52.778;6.798;2023-07-20T07:03:25;17.70;95.90
9389;DHT22;4734;52.778;6.798;2023-07-20T07:06:10;17.70;95.80
9389;DHT22;4734;52.778;6.798;2023-07-20T07:08:56;17.90;95.90
9389;DHT22;4734;52.778;6.798;2023-07-20T07:11:41;18.00;96.00
9389;DHT22;4734;52.778;6.798;2023-07-20T07:14:27;18.10;96.10
9389;DHT22;4734;52.778;6.798;2023-07-20T07:17:13;18.20;96.30
9389;DHT22;4734;52.778;6.798;2023-07-20T07:20:00;18.40;96.40
9389;DHT22;4734;52.778;6.798;2023-07-20T07:22:46;18.50;96.50
9389;DHT22;4734;52.778;6.798;2023-07-20T07:25:35;18.70;96.60
9389;DHT22;4734;52.778;6.798;2023-07-20T07:28:21;18.80;96.80
9389;DHT22;4734;52.778;6.798;2023-07-20T07:31:07;18.90;97.00
9389;DHT22;4734;52.778;6.798;2023-07-20T07:34:04;19.10;97.00
9389;DHT22;4734;52.778;6.798;2023-07-20T07:36:58;19.20;97.40
9389;DHT22;4734;52.778;6.798;2023-07-20T07:39:46;19.40;97.10
9389;DHT22;4734;52.778;6.798;2023-07-20T07:42:32;19.50;97.10
9389;DHT22;4734;52.778;6.798;2023-07-20T07:45:18;19.60;96.80
9389;DHT22;4734;52.778;6.798;2023-07-20T07:48:03;19.80;96.90
9389;DHT22;4734;52.778;6.798;2023-07-20T07:50:49;20.00;97.00
9389;DHT22;4734;52.778;6.798;2023-07-20T07:53:36;20.10;97.20
9389;DHT22;4734;52.778;6.798;2023-07-20T07:56:23;20.20;96.90
9389;DHT22;4734;52.778;6.798;2023-07-20T07:59:08;20.30;96.80
9389;DHT22;4734;52.778;6.798;2023-07-20T08:01:54;20.50;96.60
9389;DHT22;4734;52.778;6.798;2023-07-20T08:04:40;20.60;96.80
9389;DHT22;4734;52.778;6.798;2023-07-20T08:07:25;20.80;96.60
9389;DHT22;4734;52.778;6.798;2023-07-20T08:10:12;20.90;96.90
9389;DHT22;4734;52.778;6.798;2023-07-20T08:12:57;21.00;97.00
9389;DHT22;4734;52.778;6.798;2023-07-20T08:15:50;21.10;96.90
9389;DHT22;4734;52.778;6.798;2023-07-20T08:18:36;21.30;97.10
9389;DHT22;4734;52.778;6.798;2023-07-20T08:21:22;21.50;97.00
9389;DHT22;4734;52.778;6.798;2023-07-20T08:24:08;21.50;96.80
9389;DHT22;4734;52.778;6.798;2023-07-20T08:26:54;21.70;96.90
9389;DHT22;4734;52.778;6.798;2023-07-20T08:32:27;21.80;96.20
9389;DHT22;4734;52.778;6.798;2023-07-20T08:35:12;21.90;96.50
9389;DHT22;4734;52.778;6.798;2023-07-20T08:37:59;22.00;96.30
9389;DHT22;4734;52.778;6.798;2023-07-20T08:40:45;22.10;96.20
9389;DHT22;4734;52.778;6.798;2023-07-20T08:43:33;22.10;96.10
9389;DHT22;4734;52.778;6.798;2023-07-20T08:46:19;22.20;96.10
9389;DHT22;4734;52.778;6.798;2023-07-20T08:49:06;22.30;96.00
9389;DHT22;4734;52.778;6.798;2023-07-20T08:51:52;22.40;95.60
9389;DHT22;4734;52.778;6.798;2023-07-20T08:54:38;22.50;95.70
9389;DHT22;4734;52.778;6.798;2023-07-20T08:57:24;22.60;96.00
9389;DHT22;4734;52.778;6.798;2023-07-20T09:00:14;22.80;96.10
9389;DHT22;4734;52.778;6.798;2023-07-20T09:03:03;22.90;95.70
9389;DHT22;4734;52.778;6.798;2023-07-20T09:05:49;23.00;95.50
9389;DHT22;4734;52.778;6.798;2023-07-20T09:08:38;23.20;95.10
9389;DHT22;4734;52.778;6.798;2023-07-20T09:11:23;23.30;95.20
9389;DHT22;4734;52.778;6.798;2023-07-20T09:14:09;23.50;94.70
9389;DHT22;4734;52.778;6.798;2023-07-20T09:16:57;23.60;94.10
9389;DHT22;4734;52.778;6.798;2023-07-20T09:19:48;23.80;94.10
9389;DHT22;4734;52.778;6.798;2023-07-20T09:22:34;23.90;93.80
9389;DHT22;4734;52.778;6.798;2023-07-20T09:25:20;24.00;94.20
9389;DHT22;4734;52.778;6.798;2023-07-20T09:28:05;24.20;93.60
9389;DHT22;4734;52.778;6.798;2023-07-20T09:30:51;24.30;93.10
9389;DHT22;4734;52.778;6.798;2023-07-20T09:33:39;24.40;92.90
9389;DHT22;4734;52.778;6.798;2023-07-20T09:36:26;24.50;92.80
9389;DHT22;4734;52.778;6.798;2023-07-20T09:39:12;24.60;92.40
9389;DHT22;4734;52.778;6.798;2023-07-20T09:42:00;24.70;93.10
9389;DHT22;4734;52.778;6.798;2023-07-20T09:44:46;24.70;92.90
9389;DHT22;4734;52.778;6.798;2023-07-20T09:47:36;24.80;92.10
9389;DHT22;4734;52.778;6.798;2023-07-20T09:50:23;24.90;92.20
9389;DHT22;4734;52.778;6.798;2023-07-20T09:53:11;25.00;91.90
9389;DHT22;4734;52.778;6.798;2023-07-20T09:55:59;25.20;91.00
9389;DHT22;4734;52.778;6.798;2023-07-20T09:58:45;25.20;91.30
9389;DHT22;4734;52.778;6.798;2023-07-20T10:01:33;25.30;91.10
9389;DHT22;4734;52.778;6.798;2023-07-20T10:04:21;25.30;90.80
9389;DHT22;4734;52.778;6.798;2023-07-20T10:07:11;25.40;90.60
9389;DHT22;4734;52.778;6.798;2023-07-20T10:09:59;25.50;90.80
9389;DHT22;4734;52.778;6.798;2023-07-20T10:12:48;25.50;90.50
9389;DHT22;4734;52.778;6.798;2023-07-20T10:15:37;25.60;90.50
9389;DHT22;4734;52.778;6.798;2023-07-20T10:18:29;25.60;90.50
9389;DHT22;4734;52.778;6.798;2023-07-20T10:21:17;25.70;90.50
9389;DHT22;4734;52.778;6.798;2023-07-20T10:24:06;25.70;90.00
9389;DHT22;4734;52.778;6.798;2023-07-20T10:26:52;25.70;90.10
9389;DHT22;4734;52.778;6.798;2023-07-20T10:29:42;25.70;89.10
9389;DHT22;4734;52.778;6.798;2023-07-20T10:32:28;25.70;89.40
9389;DHT22;4734;52.778;6.798;2023-07-20T10:35:16;25.70;88.50
9389;DHT22;4734;52.778;6.798;2023-07-20T10:38:02;25.70;87.10
9389;DHT22;4734;52.778;6.798;2023-07-20T10:40:55;25.70;87.10
9389;DHT22;4734;52.778;6.798;2023-07-20T10:43:42;25.60;88.10
9389;DHT22;4734;52.778;6.798;2023-07-20T10:46:41;25.60;86.60
9389;DHT22;4734;52.778;6.798;2023-07-20T10:49:27;25.60;87.00
9389;DHT22;4734;52.778;6.798;2023-07-20T10:52:13;25.60;87.70
9389;DHT22;4734;52.778;6.798;2023-07-20T10:55:10;25.60;85.60
9389;DHT22;4734;52.778;6.798;2023-07-20T10:58:12;25.60;85.20
9389;DHT22;4734;52.778;6.798;2023-07-20T11:01:00;25.60;84.60
9389;DHT22;4734;52.778;6.798;2023-07-20T11:03:49;25.60;85.50
9389;DHT22;4734;52.778;6.798;2023-07-20T11:06:35;25.50;84.80
9389;DHT22;4734;52.778;6.798;2023-07-20T11:09:23;25.50;85.00
9389;DHT22;4734;52.778;6.798;2023-07-20T11:12:10;25.50;86.20
9389;DHT22;4734;52.778;6.798;2023-07-20T11:14:59;25.50;85.30
9389;DHT22;4734;52.778;6.798;2023-07-20T11:17:44;25.40;85.20
9389;DHT22;4734;52.778;6.798;2023-07-20T11:20:30;25.40;85.30
9389;DHT22;4734;52.778;6.798;2023-07-20T11:23:16;25.40;85.80
9389;DHT22;4734;52.778;6.798;2023-07-20T11:26:01;25.40;86.10
9389;DHT22;4734;52.778;6.798;2023-07-20T11:28:49;25.30;85.90
9389;DHT22;4734;52.778;6.798;2023-07-20T11:31:38;25.30;86.10
9389;DHT22;4734;52.778;6.798;2023-07-20T11:34:23;25.30;86.80
9389;DHT22;4734;52.778;6.798;2023-07-20T11:37:09;25.30;86.50
9389;DHT22;4734;52.778;6.798;2023-07-20T11:39:56;25.30;86.90
9389;DHT22;4734;52.778;6.798;2023-07-20T11:42:43;25.20;87.30
9389;DHT22;4734;52.778;6.798;2023-07-20T11:45:30;25.20;87.00
9389;DHT22;4734;52.778;6.798;2023-07-20T11:48:18;25.20;86.90
9389;DHT22;4734;52.778;6.798;2023-07-20T11:51:03;25.20;87.00
9389;DHT22;4734;52.778;6.798;2023-07-20T11:53:49;25.10;86.90
9389;DHT22;4734;52.778;6.798;2023-07-20T11:56:35;25.10;87.00
9389;DHT22;4734;52.778;6.798;2023-07-20T11:59:21;25.10;86.90
9389;DHT22;4734;52.778;6.798;2023-07-20T12:02:06;25.10;87.10
9389;DHT22;4734;52.778;6.798;2023-07-20T12:04:54;25.10;87.20
9389;DHT22;4734;52.778;6.798;2023-07-20T12:07:39;25.10;87.80
9389;DHT22;4734;52.778;6.798;2023-07-20T12:10:27;25.10;87.30
9389;DHT22;4734;52.778;6.798;2023-07-20T12:13:12;25.10;87.10
9389;DHT22;4734;52.778;6.798;2023-07-20T12:16:08;25.10;86.90
9389;DHT22;4734;52.778;6.798;2023-07-20T12:18:59;25.10;86.90
9389;DHT22;4734;52.778;6.798;2023-07-20T12:21:46;25.10;86.80
9389;DHT22;4734;52.778;6.798;2023-07-20T12:24:32;25.10;87.10
9389;DHT22;4734;52.778;6.798;2023-07-20T12:27:18;25.20;86.70
9389;DHT22;4734;52.778;6.798;2023-07-20T12:30:05;25.20;87.60
9389;DHT22;4734;52.778;6.798;2023-07-20T12:32:50;25.20;86.50
9389;DHT22;4734;52.778;6.798;2023-07-20T12:35:36;25.30;86.50
9389;DHT22;4734;52.778;6.798;2023-07-20T12:38:24;25.30;86.50
9389;DHT22;4734;52.778;6.798;2023-07-20T12:41:10;25.30;86.30
9389;DHT22;4734;52.778;6.798;2023-07-20T12:43:57;25.30;86.70
9389;DHT22;4734;52.778;6.798;2023-07-20T12:46:44;25.30;85.70
9389;DHT22;4734;52.778;6.798;2023-07-20T12:49:30;25.30;86.00
9389;DHT22;4734;52.778;6.798;2023-07-20T12:52:15;25.40;85.90
9389;DHT22;4734;52.778;6.798;2023-07-20T12:55:02;25.40;85.80
9389;DHT22;4734;52.778;6.798;2023-07-20T12:57:48;25.40;86.00
9389;DHT22;4734;52.778;6.798;2023-07-20T13:00:34;25.40;86.20
9389;DHT22;4734;52.778;6.798;2023-07-20T13:03:20;25.40;86.30
9389;DHT22;4734;52.778;6.798;2023-07-20T13:06:06;25.50;86.10
9389;DHT22;4734;52.778;6.798;2023-07-20T13:08:51;25.50;86.10
9389;DHT22;4734;52.778;6.798;2023-07-20T13:11:41;25.50;86.40
9389;DHT22;4734;52.778;6.798;2023-07-20T13:14:26;25.60;86.30
9389;DHT22;4734;52.778;6.798;2023-07-20T13:17:13;25.60;86.30
9389;DHT22;4734;52.778;6.798;2023-07-20T13:19:59;25.60;85.60
9389;DHT22;4734;52.778;6.798;2023-07-20T13:22:45;25.60;85.70
9389;DHT22;4734;52.778;6.798;2023-07-20T13:25:31;25.60;85.70
9389;DHT22;4734;52.778;6.798;2023-07-20T13:28:18;25.60;85.90
9389;DHT22;4734;52.778;6.798;2023-07-20T13:31:03;25.60;85.70
9389;DHT22;4734;52.778;6.798;2023-07-20T13:33:49;25.60;85.60
9389;DHT22;4734;52.778;6.798;2023-07-20T13:36:35;25.60;85.10
9389;DHT22;4734;52.778;6.798;2023-07-20T13:39:20;25.60;85.30
9389;DHT22;4734;52.778;6.798;2023-07-20T13:42:08;25.60;85.50
9389;DHT22;4734;52.778;6.798;2023-07-20T13:44:57;25.60;85.50
9389;DHT22;4734;52.778;6.798;2023-07-20T13:47:43;25.60;85.90
9389;DHT22;4734;52.778;6.798;2023-07-20T13:50:29;25.60;85.00
9389;DHT22;4734;52.778;6.798;2023-07-20T13:53:14;25.50;85.10
9389;DHT22;4734;52.778;6.798;2023-07-20T13:56:00;25.50;85.00
9389;DHT22;4734;52.778;6.798;2023-07-20T13:58:47;25.60;85.30
9389;DHT22;4734;52.778;6.798;2023-07-20T14:01:34;25.60;85.30
9389;DHT22;4734;52.778;6.798;2023-07-20T14:04:20;25.60;84.70
9389;DHT22;4734;52.778;6.798;2023-07-20T14:07:06;25.70;84.50
9389;DHT22;4734;52.778;6.798;2023-07-20T14:09:51;25.70;84.00
9389;DHT22;4734;52.778;6.798;2023-07-20T14:12:37;25.80;84.20
9389;DHT22;4734;52.778;6.798;2023-07-20T14:15:23;25.90;83.80
9389;DHT22;4734;52.778;6.798;2023-07-20T14:18:10;26.00;83.50
9389;DHT22;4734;52.778;6.798;2023-07-20T14:20:55;26.00;83.60
9389;DHT22;4734;52.778;6.798;2023-07-20T14:23:41;26.10;83.40
9389;DHT22;4734;52.778;6.798;2023-07-20T14:26:27;26.10;84.00
9389;DHT22;4734;52.778;6.798;2023-07-20T14:29:12;26.10;84.20
9389;DHT22;4734;52.778;6.798;2023-07-20T14:31:58;26.10;84.50
9389;DHT22;4734;52.778;6.798;2023-07-20T14:34:45;26.10;84.90
9389;DHT22;4734;52.778;6.798;2023-07-20T14:37:31;26.20;84.70
9389;DHT22;4734;52.778;6.798;2023-07-20T14:40:16;26.20;85.30
9389;DHT22;4734;52.778;6.798;2023-07-20T14:43:02;26.30;84.90
9389;DHT22;4734;52.778;6.798;2023-07-20T14:45:47;26.30;84.00
9389;DHT22;4734;52.778;6.798;2023-07-20T14:48:33;26.40;83.70
9389;DHT22;4734;52.778;6.798;2023-07-20T14:51:20;26.40;84.20
9389;DHT22;4734;52.778;6.798;2023-07-20T14:54:06;26.50;84.60
9389;DHT22;4734;52.778;6.798;2023-07-20T14:56:52;26.70;84.70
9389;DHT22;4734;52.778;6.798;2023-07-20T14:59:37;26.70;83.40
9389;DHT22;4734;52.778;6.798;2023-07-20T15:02:23;26.80;84.10
9389;DHT22;4734;52.778;6.798;2023-07-20T15:05:09;26.80;84.10
9389;DHT22;4734;52.778;6.798;2023-07-20T15:07:56;26.90;84.30
9389;DHT22;4734;52.778;6.798;2023-07-20T15:10:42;26.90;84.30
9389;DHT22;4734;52.778;6.798;2023-07-20T15:13:30;26.90;84.20
9389;DHT22;4734;52.778;6.798;2023-07-20T15:16:16;26.80;84.00
9389;DHT22;4734;52.778;6.798;2023-07-20T15:19:02;26.80;84.30
9389;DHT22;4734;52.778;6.798;2023-07-20T15:21:47;26.70;83.90
9389;DHT22;4734;52.778;6.798;2023-07-20T15:24:35;26.70;84.40
9389;DHT22;4734;52.778;6.798;2023-07-20T15:27:21;26.60;84.50
9389;DHT22;4734;52.778;6.798;2023-07-20T15:30:07;26.60;84.60
9389;DHT22;4734;52.778;6.798;2023-07-20T15:32:53;26.50;84.80
9389;DHT22;4734;52.778;6.798;2023-07-20T15:35:40;26.40;84.80
9389;DHT22;4734;52.778;6.798;2023-07-20T15:38:25;26.30;84.70
9389;DHT22;4734;52.778;6.798;2023-07-20T15:41:12;26.30;84.90
9389;DHT22;4734;52.778;6.798;2023-07-20T15:43:58;26.20;85.10
9389;DHT22;4734;52.778;6.798;2023-07-20T15:46:47;26.10;84.60
9389;DHT22;4734;52.778;6.798;2023-07-20T15:49:33;26.00;82.70
9389;DHT22;4734;52.778;6.798;2023-07-20T15:52:19;25.90;81.80
9389;DHT22;4734;52.778;6.798;2023-07-20T15:55:06;25.80;81.70
9389;DHT22;4734;52.778;6.798;2023-07-20T15:57:52;25.80;81.90
9389;DHT22;4734;52.778;6.798;2023-07-20T16:00:38;25.70;81.60
9389;DHT22;4734;52.778;6.798;2023-07-20T16:03:24;25.70;81.80
9389;DHT22;4734;52.778;6.798;2023-07-20T16:06:10;25.70;81.70
9389;DHT22;4734;52.778;6.798;2023-07-20T16:08:55;25.70;81.60
9389;DHT22;4734;52.778;6.798;2023-07-20T16:11:41;25.70;81.40
9389;DHT22;4734;52.778;6.798;2023-07-20T16:14:28;25.70;81.30
9389;DHT22;4734;52.778;6.798;2023-07-20T16:17:14;25.60;81.10
9389;DHT22;4734;52.778;6.798;2023-07-20T16:19:59;25.60;81.30
9389;DHT22;4734;52.778;6.798;2023-07-20T16:22:45;25.60;82.30
9389;DHT22;4734;52.778;6.798;2023-07-20T16:25:30;25.60;82.00
9389;DHT22;4734;52.778;6.798;2023-07-20T16:28:16;25.60;82.30
9389;DHT22;4734;52.778;6.798;2023-07-20T16:31:10;25.60;82.20
9389;DHT22;4734;52.778;6.798;2023-07-20T16:33:55;25.60;81.90
9389;DHT22;4734;52.778;6.798;2023-07-20T16:36:41;25.60;81.80
9389;DHT22;4734;52.778;6.798;2023-07-20T16:39:27;25.60;81.60
9389;DHT22;4734;52.778;6.798;2023-07-20T16:42:12;25.60;81.40
9389;DHT22;4734;52.778;6.798;2023-07-20T16:44:58;25.60;80.80
9389;DHT22;4734;52.778;6.798;2023-07-20T16:47:45;25.70;80.70
9389;DHT22;4734;52.778;6.798;2023-07-20T16:50:31;25.70;80.80
9389;DHT22;4734;52.778;6.798;2023-07-20T16:53:17;25.70;80.40
9389;DHT22;4734;52.778;6.798;2023-07-20T16:56:02;25.60;80.50
9389;DHT22;4734;52.778;6.798;2023-07-20T16:58:48;25.60;80.50
9389;DHT22;4734;52.778;6.798;2023-07-20T17:01:33;25.50;80.70
9389;DHT22;4734;52.778;6.798;2023-07-20T17:04:20;25.50;81.10
9389;DHT22;4734;52.778;6.798;2023-07-20T17:07:06;25.40;81.00
9389;DHT22;4734;52.778;6.798;2023-07-20T17:09:51;25.30;81.20
9389;DHT22;4734;52.778;6.798;2023-07-20T17:12:38;25.30;82.10
9389;DHT22;4734;52.778;6.798;2023-07-20T17:15:23;25.20;81.60
9389;DHT22;4734;52.778;6.798;2023-07-20T17:18:09;25.10;82.00
9389;DHT22;4734;52.778;6.798;2023-07-20T17:20:56;25.00;82.10
9389;DHT22;4734;52.778;6.798;2023-07-20T17:23:42;25.00;82.50
9389;DHT22;4734;52.778;6.798;2023-07-20T17:26:28;24.90;82.30
9389;DHT22;4734;52.778;6.798;2023-07-20T17:29:13;24.80;82.30
9389;DHT22;4734;52.778;6.798;2023-07-20T17:31:59;24.80;82.30
9389;DHT22;4734;52.778;6.798;2023-07-20T17:34:45;24.70;81.70
9389;DHT22;4734;52.778;6.798;2023-07-20T17:37:32;24.70;81.70
9389;DHT22;4734;52.778;6.798;2023-07-20T17:40:18;24.60;81.50
9389;DHT22;4734;52.778;6.798;2023-07-20T17:43:03;24.60;81.80
9389;DHT22;4734;52.778;6.798;2023-07-20T17:45:49;24.50;82.20
9389;DHT22;4734;52.778;6.798;2023-07-20T17:48:35;24.50;82.80
9389;DHT22;4734;52.778;6.798;2023-07-20T17:51:20;24.40;83.00
9389;DHT22;4734;52.778;6.798;2023-07-20T17:54:07;24.30;83.20
9389;DHT22;4734;52.778;6.798;2023-07-20T17:56:53;24.30;83.10
9389;DHT22;4734;52.778;6.798;2023-07-20T17:59:39;24.30;83.10
9389;DHT22;4734;52.778;6.798;2023-07-20T18:02:26;24.20;83.10
9389;DHT22;4734;52.778;6.798;2023-07-20T18:05:11;24.10;83.20
9389;DHT22;4734;52.778;6.798;2023-07-20T18:07:57;24.10;83.50
9389;DHT22;4734;52.778;6.798;2023-07-20T18:10:44;24.00;83.50
9389;DHT22;4734;52.778;6.798;2023-07-20T18:13:30;24.00;83.60
9389;DHT22;4734;52.778;6.798;2023-07-20T18:16:16;23.90;83.70